Terminal Aerodrome Forecast
Issued by NWS Cleveland, OH

Home | Current Version | Previous Version | Graphics & Text | Print | Product List | Glossary On
Versions: 1 2 3 4 5 6 7 8 9 10 11 12 13 14 15 16 17 18 19 20 21 22 23
508
FTUS41 KCLE 020935 AAA
TAFYNG
TAF AMD
KYNG 020935Z 0210/0306 30010KT 6SM BR OVC003
     FM021200 31008KT P6SM OVC035
     FM021400 34008KT P6SM OVC007
     FM021800 35007KT P6SM OVC015
     FM030100 02005KT P6SM OVC035=

USA.gov is the U.S. government's official web portal to all federal, state and local government web resources and services.